sensor_id;sensor_type;location;lat;lon;timestamp;P1;durP1;ratioP1;P2;durP2;ratioP2
75297;SDS011;63896;45.990;18.688;2023-02-15T00:02:54;86.23;;;29.73;;
75297;SDS011;63896;45.990;18.688;2023-02-15T00:05:57;88.80;;;29.65;;
75297;SDS011;63896;45.990;18.688;2023-02-15T00:09:01;101.47;;;32.83;;
75297;SDS011;63896;45.990;18.688;2023-02-15T00:12:05;93.43;;;31.73;;
75297;SDS011;63896;45.990;18.688;2023-02-15T00:15:08;84.47;;;29.63;;
75297;SDS011;63896;45.990;18.688;2023-02-15T00:18:11;74.80;;;26.37;;
75297;SDS011;63896;45.990;18.688;2023-02-15T00:21:13;80.93;;;26.58;;
75297;SDS011;63896;45.990;18.688;2023-02-15T00:24:17;89.45;;;31.67;;
75297;SDS011;63896;45.990;18.688;2023-02-15T00:27:21;101.80;;;35.20;;
75297;SDS011;63896;45.990;18.688;2023-02-15T00:30:24;112.13;;;37.03;;
75297;SDS011;63896;45.990;18.688;2023-02-15T00:33:27;109.30;;;38.57;;
75297;SDS011;63896;45.990;18.688;2023-02-15T00:36:30;98.88;;;33.90;;
75297;SDS011;63896;45.990;18.688;2023-02-15T00:39:34;98.32;;;34.08;;
75297;SDS011;63896;45.990;18.688;2023-02-15T00:42:36;93.93;;;31.05;;
75297;SDS011;63896;45.990;18.688;2023-02-15T00:45:39;79.37;;;27.13;;
75297;SDS011;63896;45.990;18.688;2023-02-15T00:48:42;79.50;;;26.87;;
75297;SDS011;63896;45.990;18.688;2023-02-15T00:51:46;81.82;;;26.90;;
75297;SDS011;63896;45.990;18.688;2023-02-15T00:54:48;80.07;;;26.45;;
75297;SDS011;63896;45.990;18.688;2023-02-15T00:57:51;66.75;;;22.65;;
75297;SDS011;63896;45.990;18.688;2023-02-15T01:00:54;93.53;;;31.83;;
75297;SDS011;63896;45.990;18.688;2023-02-15T01:03:58;81.73;;;29.33;;
75297;SDS011;63896;45.990;18.688;2023-02-15T01:07:04;85.00;;;27.23;;
75297;SDS011;63896;45.990;18.688;2023-02-15T01:10:08;91.93;;;30.10;;
75297;SDS011;63896;45.990;18.688;2023-02-15T01:13:11;85.50;;;28.42;;
75297;SDS011;63896;45.990;18.688;2023-02-15T01:16:14;75.70;;;27.07;;
75297;SDS011;63896;45.990;18.688;2023-02-15T01:19:17;78.40;;;27.37;;
75297;SDS011;63896;45.990;18.688;2023-02-15T01:22:20;78.43;;;28.15;;
75297;SDS011;63896;45.990;18.688;2023-02-15T01:25:23;81.75;;;30.73;;
75297;SDS011;63896;45.990;18.688;2023-02-15T01:28:26;74.70;;;26.67;;
75297;SDS011;63896;45.990;18.688;2023-02-15T01:31:30;73.50;;;26.33;;
75297;SDS011;63896;45.990;18.688;2023-02-15T01:34:32;74.63;;;25.93;;
75297;SDS011;63896;45.990;18.688;2023-02-15T01:37:35;78.68;;;27.17;;
75297;SDS011;63896;45.990;18.688;2023-02-15T01:40:39;85.93;;;30.45;;
75297;SDS011;63896;45.990;18.688;2023-02-15T01:43:43;83.32;;;29.27;;
75297;SDS011;63896;45.990;18.688;2023-02-15T01:46:53;84.53;;;27.00;;
75297;SDS011;63896;45.990;18.688;2023-02-15T01:50:16;84.60;;;29.37;;
75297;SDS011;63896;45.990;18.688;2023-02-15T01:53:43;85.97;;;28.77;;
75297;SDS011;63896;45.990;18.688;2023-02-15T01:56:54;75.70;;;26.17;;
75297;SDS011;63896;45.990;18.688;2023-02-15T02:00:00;75.95;;;26.38;;
75297;SDS011;63896;45.990;18.688;2023-02-15T02:03:13;79.67;;;26.33;;
75297;SDS011;63896;45.990;18.688;2023-02-15T02:06:17;67.70;;;24.07;;
75297;SDS011;63896;45.990;18.688;2023-02-15T02:09:20;89.35;;;30.98;;
75297;SDS011;63896;45.990;18.688;2023-02-15T02:12:23;72.55;;;25.48;;
75297;SDS011;63896;45.990;18.688;2023-02-15T02:15:52;84.50;;;26.70;;
75297;SDS011;63896;45.990;18.688;2023-02-15T02:39:23;61.47;;;22.97;;
75297;SDS011;63896;45.990;18.688;2023-02-15T02:43:01;57.13;;;21.33;;
75297;SDS011;63896;45.990;18.688;2023-02-15T02:46:30;60.53;;;22.30;;
75297;SDS011;63896;45.990;18.688;2023-02-15T02:49:39;66.15;;;21.75;;
75297;SDS011;63896;45.990;18.688;2023-02-15T02:52:45;68.80;;;22.47;;
75297;SDS011;63896;45.990;18.688;2023-02-15T02:55:56;67.23;;;22.47;;
75297;SDS011;63896;45.990;18.688;2023-02-15T02:59:05;62.45;;;21.33;;
75297;SDS011;63896;45.990;18.688;2023-02-15T03:02:16;64.00;;;22.80;;
75297;SDS011;63896;45.990;18.688;2023-02-15T03:05:25;57.40;;;20.63;;
75297;SDS011;63896;45.990;18.688;2023-02-15T03:08:34;53.00;;;19.97;;
75297;SDS011;63896;45.990;18.688;2023-02-15T03:11:41;52.27;;;18.93;;
75297;SDS011;63896;45.990;18.688;2023-02-15T03:14:50;55.63;;;18.95;;
75297;SDS011;63896;45.990;18.688;2023-02-15T03:17:57;50.20;;;17.08;;
75297;SDS011;63896;45.990;18.688;2023-02-15T03:21:05;52.10;;;18.08;;
75297;SDS011;63896;45.990;18.688;2023-02-15T03:24:19;50.13;;;16.77;;
75297;SDS011;63896;45.990;18.688;2023-02-15T03:27:31;49.17;;;16.83;;
75297;SDS011;63896;45.990;18.688;2023-02-15T03:30:39;50.80;;;17.50;;
75297;SDS011;63896;45.990;18.688;2023-02-15T03:33:52;49.83;;;17.17;;
75297;SDS011;63896;45.990;18.688;2023-02-15T03:37:09;47.10;;;16.45;;
75297;SDS011;63896;45.990;18.688;2023-02-15T03:47:16;48.35;;;16.60;;
75297;SDS011;63896;45.990;18.688;2023-02-15T03:50:24;51.20;;;17.05;;
75297;SDS011;63896;45.990;18.688;2023-02-15T03:53:50;51.58;;;18.17;;
75297;SDS011;63896;45.990;18.688;2023-02-15T03:56:54;48.73;;;16.47;;
75297;SDS011;63896;45.990;18.688;2023-02-15T04:00:18;55.30;;;17.60;;
75297;SDS011;63896;45.990;18.688;2023-02-15T04:03:44;46.33;;;16.40;;
75297;SDS011;63896;45.990;18.688;2023-02-15T04:06:51;47.50;;;16.73;;
75297;SDS011;63896;45.990;18.688;2023-02-15T04:09:54;49.92;;;16.92;;
75297;SDS011;63896;45.990;18.688;2023-02-15T04:13:15;46.97;;;15.63;;
75297;SDS011;63896;45.990;18.688;2023-02-15T04:16:18;43.73;;;16.33;;
75297;SDS011;63896;45.990;18.688;2023-02-15T04:19:21;74.93;;;24.15;;
75297;SDS011;63896;45.990;18.688;2023-02-15T04:22:42;78.72;;;26.10;;
75297;SDS011;63896;45.990;18.688;2023-02-15T04:26:04;67.28;;;23.48;;
75297;SDS011;63896;45.990;18.688;2023-02-15T04:29:07;62.53;;;22.93;;
75297;SDS011;63896;45.990;18.688;2023-02-15T04:32:10;64.63;;;23.07;;
75297;SDS011;63896;45.990;18.688;2023-02-15T04:35:13;66.63;;;22.75;;
75297;SDS011;63896;45.990;18.688;2023-02-15T04:38:16;51.75;;;19.65;;
75297;SDS011;63896;45.990;18.688;2023-02-15T04:41:19;52.08;;;17.33;;
75297;SDS011;63896;45.990;18.688;2023-02-15T04:44:22;45.33;;;17.00;;
75297;SDS011;63896;45.990;18.688;2023-02-15T04:47:24;52.00;;;16.13;;
75297;SDS011;63896;45.990;18.688;2023-02-15T04:50:27;42.80;;;16.63;;
75297;SDS011;63896;45.990;18.688;2023-02-15T04:53:30;53.03;;;18.17;;
75297;SDS011;63896;45.990;18.688;2023-02-15T04:56:33;53.88;;;18.65;;
75297;SDS011;63896;45.990;18.688;2023-02-15T04:59:37;54.33;;;17.90;;
75297;SDS011;63896;45.990;18.688;2023-02-15T05:02:40;55.50;;;18.53;;
75297;SDS011;63896;45.990;18.688;2023-02-15T05:05:43;57.75;;;19.02;;
75297;SDS011;63896;45.990;18.688;2023-02-15T05:08:46;64.30;;;22.55;;
75297;SDS011;63896;45.990;18.688;2023-02-15T05:11:49;53.85;;;20.20;;
75297;SDS011;63896;45.990;18.688;2023-02-15T05:14:52;67.20;;;22.37;;
75297;SDS011;63896;45.990;18.688;2023-02-15T05:17:55;61.77;;;20.47;;
75297;SDS011;63896;45.990;18.688;2023-02-15T05:20:57;72.28;;;22.05;;
75297;SDS011;63896;45.990;18.688;2023-02-15T05:24:00;70.05;;;23.13;;
75297;SDS011;63896;45.990;18.688;2023-02-15T05:27:23;86.03;;;28.35;;
75297;SDS011;63896;45.990;18.688;2023-02-15T05:30:45;81.77;;;29.17;;
75297;SDS011;63896;45.990;18.688;2023-02-15T05:33:52;75.27;;;27.90;;
75297;SDS011;63896;45.990;18.688;2023-02-15T05:36:55;104.82;;;35.90;;
75297;SDS011;63896;45.990;18.688;2023-02-15T05:39:58;151.23;;;52.97;;
75297;SDS011;63896;45.990;18.688;2023-02-15T05:43:01;132.82;;;47.20;;
75297;SDS011;63896;45.990;18.688;2023-02-15T05:46:03;135.03;;;46.10;;
75297;SDS011;63896;45.990;18.688;2023-02-15T05:49:07;122.33;;;43.93;;
75297;SDS011;63896;45.990;18.688;2023-02-15T05:52:10;126.13;;;43.03;;
75297;SDS011;63896;45.990;18.688;2023-02-15T05:55:14;131.77;;;43.28;;
75297;SDS011;63896;45.990;18.688;2023-02-15T05:58:17;142.77;;;45.72;;
75297;SDS011;63896;45.990;18.688;2023-02-15T06:01:20;140.63;;;42.53;;
75297;SDS011;63896;45.990;18.688;2023-02-15T06:04:25;111.20;;;35.03;;
75297;SDS011;63896;45.990;18.688;2023-02-15T06:07:28;85.57;;;28.00;;
75297;SDS011;63896;45.990;18.688;2023-02-15T06:10:31;82.78;;;26.48;;
75297;SDS011;63896;45.990;18.688;2023-02-15T06:13:34;118.40;;;33.60;;
75297;SDS011;63896;45.990;18.688;2023-02-15T06:16:40;97.27;;;32.57;;
75297;SDS011;63896;45.990;18.688;2023-02-15T06:19:44;100.87;;;31.33;;
75297;SDS011;63896;45.990;18.688;2023-02-15T06:22:48;87.57;;;30.00;;
75297;SDS011;63896;45.990;18.688;2023-02-15T06:25:51;89.90;;;30.77;;
75297;SDS011;63896;45.990;18.688;2023-02-15T06:28:54;96.03;;;33.50;;
75297;SDS011;63896;45.990;18.688;2023-02-15T06:31:56;93.30;;;33.67;;
75297;SDS011;63896;45.990;18.688;2023-02-15T06:34:59;99.70;;;35.63;;
75297;SDS011;63896;45.990;18.688;2023-02-15T06:38:03;100.70;;;36.95;;
75297;SDS011;63896;45.990;18.688;2023-02-15T06:41:06;121.90;;;46.15;;
75297;SDS011;63896;45.990;18.688;2023-02-15T06:44:09;172.60;;;58.67;;
75297;SDS011;63896;45.990;18.688;2023-02-15T06:47:12;158.87;;;59.07;;
75297;SDS011;63896;45.990;18.688;2023-02-15T06:50:15;170.20;;;66.33;;
75297;SDS011;63896;45.990;18.688;2023-02-15T06:53:18;154.02;;;62.03;;
75297;SDS011;63896;45.990;18.688;2023-02-15T06:56:21;173.27;;;68.40;;
75297;SDS011;63896;45.990;18.688;2023-02-15T06:59:24;175.00;;;68.15;;
75297;SDS011;63896;45.990;18.688;2023-02-15T07:02:28;171.13;;;66.07;;
75297;SDS011;63896;45.990;18.688;2023-02-15T07:05:32;152.27;;;57.50;;
75297;SDS011;63896;45.990;18.688;2023-02-15T07:08:37;141.65;;;55.72;;
75297;SDS011;63896;45.990;18.688;2023-02-15T07:11:42;137.60;;;54.50;;
75297;SDS011;63896;45.990;18.688;2023-02-15T07:15:04;132.57;;;53.90;;
75297;SDS011;63896;45.990;18.688;2023-02-15T07:18:09;148.17;;;59.30;;
75297;SDS011;63896;45.990;18.688;2023-02-15T07:21:13;151.07;;;67.50;;
75297;SDS011;63896;45.990;18.688;2023-02-15T07:24:16;167.77;;;76.75;;
75297;SDS011;63896;45.990;18.688;2023-02-15T07:27:19;174.90;;;79.97;;
75297;SDS011;63896;45.990;18.688;2023-02-15T07:30:22;169.65;;;76.88;;
75297;SDS011;63896;45.990;18.688;2023-02-15T07:33:25;161.00;;;74.70;;
75297;SDS011;63896;45.990;18.688;2023-02-15T07:36:30;164.30;;;77.23;;
75297;SDS011;63896;45.990;18.688;2023-02-15T07:39:33;166.93;;;80.15;;
75297;SDS011;63896;45.990;18.688;2023-02-15T07:42:37;145.43;;;72.55;;
75297;SDS011;63896;45.990;18.688;2023-02-15T07:45:43;139.13;;;72.63;;
75297;SDS011;63896;45.990;18.688;2023-02-15T07:48:46;140.50;;;72.75;;
75297;SDS011;63896;45.990;18.688;2023-02-15T07:51:49;127.33;;;64.27;;
75297;SDS011;63896;45.990;18.688;2023-02-15T07:55:05;113.97;;;57.30;;
75297;SDS011;63896;45.990;18.688;2023-02-15T07:58:08;96.32;;;49.50;;
75297;SDS011;63896;45.990;18.688;2023-02-15T08:01:11;99.72;;;47.17;;
75297;SDS011;63896;45.990;18.688;2023-02-15T08:04:15;88.47;;;44.70;;
75297;SDS011;63896;45.990;18.688;2023-02-15T08:07:20;78.33;;;38.07;;
75297;SDS011;63896;45.990;18.688;2023-02-15T08:10:23;70.72;;;37.78;;
75297;SDS011;63896;45.990;18.688;2023-02-15T08:13:48;106.22;;;53.60;;
75297;SDS011;63896;45.990;18.688;2023-02-15T08:16:59;114.32;;;58.35;;
75297;SDS011;63896;45.990;18.688;2023-02-15T08:20:06;95.18;;;48.97;;
75297;SDS011;63896;45.990;18.688;2023-02-15T08:23:14;80.90;;;44.53;;
75297;SDS011;63896;45.990;18.688;2023-02-15T08:26:17;73.05;;;39.75;;
75297;SDS011;63896;45.990;18.688;2023-02-15T08:29:22;65.35;;;33.35;;
75297;SDS011;63896;45.990;18.688;2023-02-15T08:32:27;58.22;;;32.55;;
75297;SDS011;63896;45.990;18.688;2023-02-15T08:35:30;53.63;;;29.27;;
75297;SDS011;63896;45.990;18.688;2023-02-15T08:38:33;52.47;;;27.50;;
75297;SDS011;63896;45.990;18.688;2023-02-15T08:41:37;50.42;;;28.10;;
75297;SDS011;63896;45.990;18.688;2023-02-15T08:44:46;48.35;;;28.58;;
75297;SDS011;63896;45.990;18.688;2023-02-15T08:47:51;56.95;;;31.10;;
75297;SDS011;63896;45.990;18.688;2023-02-15T08:50:55;54.95;;;30.75;;
75297;SDS011;63896;45.990;18.688;2023-02-15T08:54:00;50.80;;;29.20;;
75297;SDS011;63896;45.990;18.688;2023-02-15T08:57:05;50.78;;;29.63;;
75297;SDS011;63896;45.990;18.688;2023-02-15T09:00:09;48.97;;;28.50;;
75297;SDS011;63896;45.990;18.688;2023-02-15T09:03:13;47.40;;;28.92;;
75297;SDS011;63896;45.990;18.688;2023-02-15T09:06:20;47.50;;;27.77;;
75297;SDS011;63896;45.990;18.688;2023-02-15T09:09:26;47.87;;;28.73;;
75297;SDS011;63896;45.990;18.688;2023-02-15T09:12:29;45.88;;;27.67;;
75297;SDS011;63896;45.990;18.688;2023-02-15T09:15:35;47.50;;;27.25;;
75297;SDS011;63896;45.990;18.688;2023-02-15T09:18:40;46.90;;;27.30;;
75297;SDS011;63896;45.990;18.688;2023-02-15T09:21:43;44.20;;;25.88;;
75297;SDS011;63896;45.990;18.688;2023-02-15T09:24:46;38.80;;;23.07;;
75297;SDS011;63896;45.990;18.688;2023-02-15T09:27:49;43.75;;;26.05;;
75297;SDS011;63896;45.990;18.688;2023-02-15T09:30:53;40.60;;;23.23;;
75297;SDS011;63896;45.990;18.688;2023-02-15T09:34:02;41.60;;;24.38;;
75297;SDS011;63896;45.990;18.688;2023-02-15T09:37:06;40.63;;;22.40;;
75297;SDS011;63896;45.990;18.688;2023-02-15T09:40:11;36.50;;;22.33;;
75297;SDS011;63896;45.990;18.688;2023-02-15T09:43:28;42.63;;;23.13;;
75297;SDS011;63896;45.990;18.688;2023-02-15T09:47:04;43.90;;;24.90;;
75297;SDS011;63896;45.990;18.688;2023-02-15T09:57:06;25.70;;;16.17;;
75297;SDS011;63896;45.990;18.688;2023-02-15T10:13:45;23.00;;;14.33;;
75297;SDS011;63896;45.990;18.688;2023-02-15T10:20:29;23.02;;;13.95;;
75297;SDS011;63896;45.990;18.688;2023-02-15T10:26:48;25.52;;;15.27;;
75297;SDS011;63896;45.990;18.688;2023-02-15T10:30:00;25.07;;;15.20;;
75297;SDS011;63896;45.990;18.688;2023-02-15T10:44:04;23.38;;;15.82;;
75297;SDS011;63896;45.990;18.688;2023-02-15T11:00:52;26.70;;;16.73;;
75297;SDS011;63896;45.990;18.688;2023-02-15T11:07:20;24.27;;;15.40;;
75297;SDS011;63896;45.990;18.688;2023-02-15T11:13:47;23.77;;;14.23;;
75297;SDS011;63896;45.990;18.688;2023-02-15T11:16:54;25.08;;;14.82;;
75297;SDS011;63896;45.990;18.688;2023-02-15T11:23:44;24.58;;;15.93;;
75297;SDS011;63896;45.990;18.688;2023-02-15T11:30:25;23.40;;;14.68;;
75297;SDS011;63896;45.990;18.688;2023-02-15T11:33:35;30.15;;;16.85;;
75297;SDS011;63896;45.990;18.688;2023-02-15T11:36:44;31.80;;;14.23;;
75297;SDS011;63896;45.990;18.688;2023-02-15T11:39:50;25.17;;;15.82;;
75297;SDS011;63896;45.990;18.688;2023-02-15T11:43:04;24.58;;;15.48;;
75297;SDS011;63896;45.990;18.688;2023-02-15T11:46:15;24.15;;;14.88;;
75297;SDS011;63896;45.990;18.688;2023-02-15T11:49:30;25.98;;;15.00;;
75297;SDS011;63896;45.990;18.688;2023-02-15T11:52:45;22.97;;;14.37;;
75297;SDS011;63896;45.990;18.688;2023-02-15T11:55:50;21.17;;;14.38;;
75297;SDS011;63896;45.990;18.688;2023-02-15T12:02:39;24.02;;;15.40;;
75297;SDS011;63896;45.990;18.688;2023-02-15T12:05:52;25.75;;;15.15;;
75297;SDS011;63896;45.990;18.688;2023-02-15T12:09:24;25.77;;;15.17;;
75297;SDS011;63896;45.990;18.688;2023-02-15T12:12:32;24.30;;;14.45;;
75297;SDS011;63896;45.990;18.688;2023-02-15T12:15:37;27.98;;;15.38;;
75297;SDS011;63896;45.990;18.688;2023-02-15T12:18:43;23.65;;;14.80;;
75297;SDS011;63896;45.990;18.688;2023-02-15T12:21:51;26.73;;;14.98;;
75297;SDS011;63896;45.990;18.688;2023-02-15T12:24:58;24.10;;;14.57;;
75297;SDS011;63896;45.990;18.688;2023-02-15T12:28:04;22.58;;;14.63;;
75297;SDS011;63896;45.990;18.688;2023-02-15T12:31:47;22.42;;;14.27;;
75297;SDS011;63896;45.990;18.688;2023-02-15T12:34:51;24.05;;;14.93;;
75297;SDS011;63896;45.990;18.688;2023-02-15T12:38:02;26.23;;;14.35;;
75297;SDS011;63896;45.990;18.688;2023-02-15T12:44:33;27.13;;;15.45;;
75297;SDS011;63896;45.990;18.688;2023-02-15T12:47:37;23.50;;;15.10;;
75297;SDS011;63896;45.990;18.688;2023-02-15T12:50:46;26.85;;;15.38;;
75297;SDS011;63896;45.990;18.688;2023-02-15T12:53:56;23.80;;;14.98;;
75297;SDS011;63896;45.990;18.688;2023-02-15T12:57:20;25.87;;;16.20;;
75297;SDS011;63896;45.990;18.688;2023-02-15T13:00:28;24.05;;;15.20;;
75297;SDS011;63896;45.990;18.688;2023-02-15T13:03:35;28.02;;;16.80;;
75297;SDS011;63896;45.990;18.688;2023-02-15T13:06:46;23.58;;;15.30;;
75297;SDS011;63896;45.990;18.688;2023-02-15T13:09:51;25.38;;;16.13;;
75297;SDS011;63896;45.990;18.688;2023-02-15T13:12:55;35.93;;;19.27;;
75297;SDS011;63896;45.990;18.688;2023-02-15T13:16:10;26.27;;;15.43;;
75297;SDS011;63896;45.990;18.688;2023-02-15T13:19:18;24.35;;;14.68;;
75297;SDS011;63896;45.990;18.688;2023-02-15T13:22:26;26.13;;;14.88;;
75297;SDS011;63896;45.990;18.688;2023-02-15T13:25:44;23.95;;;14.32;;
75297;SDS011;63896;45.990;18.688;2023-02-15T13:28:55;24.53;;;14.20;;
75297;SDS011;63896;45.990;18.688;2023-02-15T13:32:30;24.98;;;14.88;;
75297;SDS011;63896;45.990;18.688;2023-02-15T13:35:43;21.80;;;13.88;;
75297;SDS011;63896;45.990;18.688;2023-02-15T13:39:05;25.75;;;14.90;;
75297;SDS011;63896;45.990;18.688;2023-02-15T13:52:04;25.58;;;15.90;;
75297;SDS011;63896;45.990;18.688;2023-02-15T13:55:23;25.08;;;15.05;;
75297;SDS011;63896;45.990;18.688;2023-02-15T14:05:43;28.42;;;15.32;;
75297;SDS011;63896;45.990;18.688;2023-02-15T14:18:45;32.90;;;15.03;;
75297;SDS011;63896;45.990;18.688;2023-02-15T14:25:48;27.02;;;14.43;;
75297;SDS011;63896;45.990;18.688;2023-02-15T14:35:32;32.00;;;15.60;;
75297;SDS011;63896;45.990;18.688;2023-02-15T14:42:07;34.10;;;17.80;;
75297;SDS011;63896;45.990;18.688;2023-02-15T14:45:19;30.95;;;15.25;;
75297;SDS011;63896;45.990;18.688;2023-02-15T14:48:38;33.55;;;16.38;;
75297;SDS011;63896;45.990;18.688;2023-02-15T14:54:55;26.83;;;14.45;;
75297;SDS011;63896;45.990;18.688;2023-02-15T14:57:59;31.27;;;15.05;;
75297;SDS011;63896;45.990;18.688;2023-02-15T15:01:06;39.80;;;16.00;;
75297;SDS011;63896;45.990;18.688;2023-02-15T15:04:12;30.33;;;16.27;;
75297;SDS011;63896;45.990;18.688;2023-02-15T15:14:45;27.48;;;12.80;;
75297;SDS011;63896;45.990;18.688;2023-02-15T15:17:52;34.25;;;17.00;;
75297;SDS011;63896;45.990;18.688;2023-02-15T15:21:08;34.03;;;15.87;;
75297;SDS011;63896;45.990;18.688;2023-02-15T15:27:43;45.30;;;19.00;;
75297;SDS011;63896;45.990;18.688;2023-02-15T15:30:55;60.30;;;24.55;;
75297;SDS011;63896;45.990;18.688;2023-02-15T15:34:07;60.30;;;24.65;;
75297;SDS011;63896;45.990;18.688;2023-02-15T15:48:26;71.85;;;29.02;;
75297;SDS011;63896;45.990;18.688;2023-02-15T15:51:39;66.00;;;27.35;;
75297;SDS011;63896;45.990;18.688;2023-02-15T15:54:44;69.30;;;29.60;;
75297;SDS011;63896;45.990;18.688;2023-02-15T15:57:55;88.00;;;39.37;;
75297;SDS011;63896;45.990;18.688;2023-02-15T16:01:03;91.53;;;41.20;;
75297;SDS011;63896;45.990;18.688;2023-02-15T16:04:12;88.00;;;39.60;;
75297;SDS011;63896;45.990;18.688;2023-02-15T16:10:23;85.53;;;40.10;;
75297;SDS011;63896;45.990;18.688;2023-02-15T16:13:28;89.03;;;39.43;;
75297;SDS011;63896;45.990;18.688;2023-02-15T16:16:31;113.88;;;51.10;;
75297;SDS011;63896;45.990;18.688;2023-02-15T16:19:36;96.78;;;45.28;;
75297;SDS011;63896;45.990;18.688;2023-02-15T16:22:41;101.55;;;45.05;;
75297;SDS011;63896;45.990;18.688;2023-02-15T16:29:29;122.57;;;53.50;;
75297;SDS011;63896;45.990;18.688;2023-02-15T16:32:35;100.47;;;50.03;;
75297;SDS011;63896;45.990;18.688;2023-02-15T16:35:39;103.13;;;53.65;;
75297;SDS011;63896;45.990;18.688;2023-02-15T16:41:58;130.93;;;65.53;;
75297;SDS011;63896;45.990;18.688;2023-02-15T16:45:08;127.30;;;62.63;;
75297;SDS011;63896;45.990;18.688;2023-02-15T16:48:19;113.38;;;56.38;;
75297;SDS011;63896;45.990;18.688;2023-02-15T16:51:28;126.43;;;60.58;;
75297;SDS011;63896;45.990;18.688;2023-02-15T16:54:33;131.20;;;61.90;;
75297;SDS011;63896;45.990;18.688;2023-02-15T16:57:38;144.23;;;64.23;;
75297;SDS011;63896;45.990;18.688;2023-02-15T17:00:45;177.60;;;78.80;;
75297;SDS011;63896;45.990;18.688;2023-02-15T17:03:50;188.05;;;85.47;;
75297;SDS011;63896;45.990;18.688;2023-02-15T17:07:19;182.73;;;82.97;;
75297;SDS011;63896;45.990;18.688;2023-02-15T17:10:27;168.65;;;76.40;;
75297;SDS011;63896;45.990;18.688;2023-02-15T17:13:35;174.13;;;73.37;;
75297;SDS011;63896;45.990;18.688;2023-02-15T17:16:45;169.40;;;76.37;;
75297;SDS011;63896;45.990;18.688;2023-02-15T17:19:53;165.90;;;73.45;;
75297;SDS011;63896;45.990;18.688;2023-02-15T17:22:58;175.25;;;79.28;;
75297;SDS011;63896;45.990;18.688;2023-02-15T17:26:02;171.35;;;74.22;;
75297;SDS011;63896;45.990;18.688;2023-02-15T17:29:36;170.40;;;74.70;;
75297;SDS011;63896;45.990;18.688;2023-02-15T17:32:55;177.13;;;76.47;;
75297;SDS011;63896;45.990;18.688;2023-02-15T17:36:13;171.32;;;74.82;;
75297;SDS011;63896;45.990;18.688;2023-02-15T17:39:27;174.98;;;74.72;;
75297;SDS011;63896;45.990;18.688;2023-02-15T17:42:30;170.05;;;72.38;;
75297;SDS011;63896;45.990;18.688;2023-02-15T17:45:40;167.70;;;72.77;;
75297;SDS011;63896;45.990;18.688;2023-02-15T17:48:53;159.20;;;67.77;;
75297;SDS011;63896;45.990;18.688;2023-02-15T17:51:58;146.20;;;60.50;;
75297;SDS011;63896;45.990;18.688;2023-02-15T17:55:05;132.70;;;54.80;;
75297;SDS011;63896;45.990;18.688;2023-02-15T17:58:34;122.80;;;53.90;;
75297;SDS011;63896;45.990;18.688;2023-02-15T18:01:38;157.57;;;65.07;;
75297;SDS011;63896;45.990;18.688;2023-02-15T18:05:10;139.40;;;59.70;;
75297;SDS011;63896;45.990;18.688;2023-02-15T18:08:36;138.88;;;56.13;;
75297;SDS011;63896;45.990;18.688;2023-02-15T18:11:58;139.52;;;55.10;;
75297;SDS011;63896;45.990;18.688;2023-02-15T18:15:02;126.78;;;53.40;;
75297;SDS011;63896;45.990;18.688;2023-02-15T18:18:07;120.20;;;50.20;;
75297;SDS011;63896;45.990;18.688;2023-02-15T18:21:13;135.00;;;54.10;;
75297;SDS011;63896;45.990;18.688;2023-02-15T18:24:26;120.40;;;52.47;;
75297;SDS011;63896;45.990;18.688;2023-02-15T18:27:29;102.15;;;41.60;;
75297;SDS011;63896;45.990;18.688;2023-02-15T18:30:32;113.32;;;48.13;;
75297;SDS011;63896;45.990;18.688;2023-02-15T18:33:39;112.07;;;46.77;;
75297;SDS011;63896;45.990;18.688;2023-02-15T18:36:46;105.80;;;46.30;;
75297;SDS011;63896;45.990;18.688;2023-02-15T18:39:52;107.32;;;45.17;;
75297;SDS011;63896;45.990;18.688;2023-02-15T18:42:56;107.50;;;44.88;;
75297;SDS011;63896;45.990;18.688;2023-02-15T18:45:59;119.68;;;50.03;;
75297;SDS011;63896;45.990;18.688;2023-02-15T18:49:02;156.20;;;64.27;;
75297;SDS011;63896;45.990;18.688;2023-02-15T18:52:08;181.57;;;69.63;;
75297;SDS011;63896;45.990;18.688;2023-02-15T18:58:22;358.85;;;131.95;;
75297;SDS011;63896;45.990;18.688;2023-02-15T19:01:26;381.77;;;147.30;;
75297;SDS011;63896;45.990;18.688;2023-02-15T19:04:30;321.87;;;129.30;;
75297;SDS011;63896;45.990;18.688;2023-02-15T19:07:35;328.33;;;130.00;;
75297;SDS011;63896;45.990;18.688;2023-02-15T19:10:38;311.58;;;123.72;;
75297;SDS011;63896;45.990;18.688;2023-02-15T19:13:42;286.92;;;113.55;;
75297;SDS011;63896;45.990;18.688;2023-02-15T19:16:46;298.50;;;118.95;;
75297;SDS011;63896;45.990;18.688;2023-02-15T19:19:50;289.07;;;114.73;;
75297;SDS011;63896;45.990;18.688;2023-02-15T19:22:54;270.33;;;110.87;;
75297;SDS011;63896;45.990;18.688;2023-02-15T19:25:59;276.27;;;107.15;;
75297;SDS011;63896;45.990;18.688;2023-02-15T19:29:03;242.73;;;94.30;;
75297;SDS011;63896;45.990;18.688;2023-02-15T19:32:08;243.18;;;93.95;;
75297;SDS011;63896;45.990;18.688;2023-02-15T19:35:14;235.97;;;95.53;;
75297;SDS011;63896;45.990;18.688;2023-02-15T19:38:23;226.77;;;93.77;;
75297;SDS011;63896;45.990;18.688;2023-02-15T19:41:30;234.32;;;101.55;;
75297;SDS011;63896;45.990;18.688;2023-02-15T19:44:34;212.52;;;86.72;;
75297;SDS011;63896;45.990;18.688;2023-02-15T19:47:38;235.00;;;90.63;;
75297;SDS011;63896;45.990;18.688;2023-02-15T19:50:46;204.03;;;75.30;;
75297;SDS011;63896;45.990;18.688;2023-02-15T19:53:50;179.27;;;70.03;;
75297;SDS011;63896;45.990;18.688;2023-02-15T19:56:54;155.23;;;59.80;;
75297;SDS011;63896;45.990;18.688;2023-02-15T19:59:57;163.55;;;61.92;;
75297;SDS011;63896;45.990;18.688;2023-02-15T20:03:08;152.45;;;57.33;;
75297;SDS011;63896;45.990;18.688;2023-02-15T20:06:12;146.57;;;54.97;;
75297;SDS011;63896;45.990;18.688;2023-02-15T20:09:38;157.40;;;59.00;;
75297;SDS011;63896;45.990;18.688;2023-02-15T20:12:42;166.18;;;61.20;;
75297;SDS011;63896;45.990;18.688;2023-02-15T20:15:46;154.82;;;60.67;;
75297;SDS011;63896;45.990;18.688;2023-02-15T20:18:51;170.68;;;64.43;;
75297;SDS011;63896;45.990;18.688;2023-02-15T20:21:54;186.80;;;70.93;;
75297;SDS011;63896;45.990;18.688;2023-02-15T20:24:59;196.47;;;75.10;;
75297;SDS011;63896;45.990;18.688;2023-02-15T20:28:04;187.48;;;71.03;;
75297;SDS011;63896;45.990;18.688;2023-02-15T20:31:12;158.38;;;61.00;;
75297;SDS011;63896;45.990;18.688;2023-02-15T20:34:20;134.75;;;51.83;;
75297;SDS011;63896;45.990;18.688;2023-02-15T20:37:25;126.83;;;47.70;;
75297;SDS011;63896;45.990;18.688;2023-02-15T20:40:32;117.90;;;42.17;;
75297;SDS011;63896;45.990;18.688;2023-02-15T20:43:37;104.50;;;39.38;;
75297;SDS011;63896;45.990;18.688;2023-02-15T20:46:49;99.25;;;36.83;;
75297;SDS011;63896;45.990;18.688;2023-02-15T20:49:54;83.47;;;33.97;;
75297;SDS011;63896;45.990;18.688;2023-02-15T20:52:58;84.97;;;32.87;;
75297;SDS011;63896;45.990;18.688;2023-02-15T20:56:02;91.43;;;34.10;;